Red Rock, Arizona
Current Conditions -  °F | °C
As of 9:15 AM on Thursday 29 Jan 2015 (Local Time) from KAVQ Reporting Station
Overcast Overcast  
Wind Chill: 60°   Ceiling: 11000
Heat Index: 60°   Visibility: 10mi
Dew Point: 49°   Wind: 8mph
Humidity: 67%   Direction: 120°ESE
Pressure: 30.1"   Gusts: NA
Location:  32.58°N, 111.39°W
Report Text: KAVQ 291615Z AUTO 12007KT 10SM OVC110 16/10 A3010 RMK AO2 T01550095
Loading
Personal Weather Stations






























Interactive Weather Map New forecast layout! Learn more

10-Day Weather Forecast

Advertisements
Track Severe Weather on mobile